sensor_id;sensor_type;location;lat;lon;timestamp;P1;durP1;ratioP1;P2;durP2;ratioP2
80675;SDS011;70041;46.088;18.268;2024-03-17T00:02:02;12.80;;;5.97;;
80675;SDS011;70041;46.088;18.268;2024-03-17T00:04:27;11.13;;;5.70;;
80675;SDS011;70041;46.088;18.268;2024-03-17T00:06:52;11.77;;;5.28;;
80675;SDS011;70041;46.088;18.268;2024-03-17T00:09:18;9.67;;;4.50;;
80675;SDS011;70041;46.088;18.268;2024-03-17T00:11:44;12.30;;;5.30;;
80675;SDS011;70041;46.088;18.268;2024-03-17T00:14:10;10.75;;;4.88;;
80675;SDS011;70041;46.088;18.268;2024-03-17T00:16:36;14.60;;;5.93;;
80675;SDS011;70041;46.088;18.268;2024-03-17T00:19:02;11.17;;;4.80;;
80675;SDS011;70041;46.088;18.268;2024-03-17T00:21:27;11.70;;;4.38;;
80675;SDS011;70041;46.088;18.268;2024-03-17T00:23:54;12.93;;;4.55;;
80675;SDS011;70041;46.088;18.268;2024-03-17T00:26:19;13.23;;;5.30;;
80675;SDS011;70041;46.088;18.268;2024-03-17T00:28:45;12.10;;;4.90;;
80675;SDS011;70041;46.088;18.268;2024-03-17T00:31:13;12.45;;;4.90;;
80675;SDS011;70041;46.088;18.268;2024-03-17T00:33:39;13.65;;;5.78;;
80675;SDS011;70041;46.088;18.268;2024-03-17T00:36:05;11.60;;;5.28;;
80675;SDS011;70041;46.088;18.268;2024-03-17T00:38:31;11.82;;;5.13;;
80675;SDS011;70041;46.088;18.268;2024-03-17T00:40:56;10.70;;;5.17;;
80675;SDS011;70041;46.088;18.268;2024-03-17T00:43:22;9.70;;;4.90;;
80675;SDS011;70041;46.088;18.268;2024-03-17T00:45:53;11.10;;;6.03;;
80675;SDS011;70041;46.088;18.268;2024-03-17T00:48:19;11.25;;;6.35;;
80675;SDS011;70041;46.088;18.268;2024-03-17T00:50:44;11.73;;;5.67;;
80675;SDS011;70041;46.088;18.268;2024-03-17T00:53:13;14.73;;;6.28;;
80675;SDS011;70041;46.088;18.268;2024-03-17T00:55:39;16.20;;;5.75;;
80675;SDS011;70041;46.088;18.268;2024-03-17T00:58:04;13.90;;;7.23;;
80675;SDS011;70041;46.088;18.268;2024-03-17T01:00:30;14.23;;;6.70;;
80675;SDS011;70041;46.088;18.268;2024-03-17T01:02:58;14.63;;;6.40;;
80675;SDS011;70041;46.088;18.268;2024-03-17T01:05:23;12.80;;;6.03;;
80675;SDS011;70041;46.088;18.268;2024-03-17T01:07:49;15.00;;;6.57;;
80675;SDS011;70041;46.088;18.268;2024-03-17T01:10:14;12.67;;;6.00;;
80675;SDS011;70041;46.088;18.268;2024-03-17T01:12:40;14.40;;;6.25;;
80675;SDS011;70041;46.088;18.268;2024-03-17T01:15:06;11.80;;;6.03;;
80675;SDS011;70041;46.088;18.268;2024-03-17T01:17:31;11.65;;;6.45;;
80675;SDS011;70041;46.088;18.268;2024-03-17T01:19:57;11.90;;;5.80;;
80675;SDS011;70041;46.088;18.268;2024-03-17T01:22:23;40.88;;;14.57;;
80675;SDS011;70041;46.088;18.268;2024-03-17T01:24:48;17.10;;;7.53;;
80675;SDS011;70041;46.088;18.268;2024-03-17T01:27:14;12.40;;;5.87;;
80675;SDS011;70041;46.088;18.268;2024-03-17T01:29:41;12.77;;;5.82;;
80675;SDS011;70041;46.088;18.268;2024-03-17T01:32:09;10.18;;;5.20;;
80675;SDS011;70041;46.088;18.268;2024-03-17T01:34:38;13.03;;;6.20;;
80675;SDS011;70041;46.088;18.268;2024-03-17T01:37:04;18.17;;;6.95;;
80675;SDS011;70041;46.088;18.268;2024-03-17T01:39:29;14.80;;;6.90;;
80675;SDS011;70041;46.088;18.268;2024-03-17T01:41:55;17.33;;;6.93;;
80675;SDS011;70041;46.088;18.268;2024-03-17T01:44:22;21.43;;;7.80;;
80675;SDS011;70041;46.088;18.268;2024-03-17T01:46:49;15.73;;;7.72;;
80675;SDS011;70041;46.088;18.268;2024-03-17T01:49:15;12.88;;;7.05;;
80675;SDS011;70041;46.088;18.268;2024-03-17T01:51:41;12.50;;;6.00;;
80675;SDS011;70041;46.088;18.268;2024-03-17T01:54:08;12.93;;;6.03;;
80675;SDS011;70041;46.088;18.268;2024-03-17T01:56:33;13.20;;;7.07;;
80675;SDS011;70041;46.088;18.268;2024-03-17T01:59:00;17.83;;;7.27;;
80675;SDS011;70041;46.088;18.268;2024-03-17T02:01:26;14.52;;;7.65;;
80675;SDS011;70041;46.088;18.268;2024-03-17T02:03:52;13.70;;;7.67;;
80675;SDS011;70041;46.088;18.268;2024-03-17T02:06:17;27.00;;;12.60;;
80675;SDS011;70041;46.088;18.268;2024-03-17T02:08:46;29.17;;;13.07;;
80675;SDS011;70041;46.088;18.268;2024-03-17T02:11:36;21.03;;;10.20;;
80675;SDS011;70041;46.088;18.268;2024-03-17T02:14:00;16.95;;;8.63;;
80675;SDS011;70041;46.088;18.268;2024-03-17T02:16:26;14.13;;;7.53;;
80675;SDS011;70041;46.088;18.268;2024-03-17T02:18:55;14.57;;;8.17;;
80675;SDS011;70041;46.088;18.268;2024-03-17T02:21:22;20.35;;;8.25;;
80675;SDS011;70041;46.088;18.268;2024-03-17T02:23:48;13.50;;;7.13;;
80675;SDS011;70041;46.088;18.268;2024-03-17T02:26:14;11.87;;;6.70;;
80675;SDS011;70041;46.088;18.268;2024-03-17T02:28:43;15.63;;;7.88;;
80675;SDS011;70041;46.088;18.268;2024-03-17T02:31:10;15.50;;;7.25;;
80675;SDS011;70041;46.088;18.268;2024-03-17T02:33:37;14.68;;;7.88;;
80675;SDS011;70041;46.088;18.268;2024-03-17T02:36:03;17.73;;;8.25;;
80675;SDS011;70041;46.088;18.268;2024-03-17T02:38:30;13.07;;;7.00;;
80675;SDS011;70041;46.088;18.268;2024-03-17T02:41:15;8.02;;;3.75;;
80675;SDS011;70041;46.088;18.268;2024-03-17T02:43:41;5.63;;;2.40;;
80675;SDS011;70041;46.088;18.268;2024-03-17T02:46:06;3.00;;;1.27;;
80675;SDS011;70041;46.088;18.268;2024-03-17T02:48:36;3.80;;;1.20;;
80675;SDS011;70041;46.088;18.268;2024-03-17T02:51:02;4.05;;;1.33;;
80675;SDS011;70041;46.088;18.268;2024-03-17T02:53:29;3.03;;;1.27;;
80675;SDS011;70041;46.088;18.268;2024-03-17T02:55:54;5.27;;;1.20;;
80675;SDS011;70041;46.088;18.268;2024-03-17T02:58:20;2.63;;;0.82;;
80675;SDS011;70041;46.088;18.268;2024-03-17T03:00:45;1.80;;;0.77;;
80675;SDS011;70041;46.088;18.268;2024-03-17T03:03:11;2.30;;;1.10;;
80675;SDS011;70041;46.088;18.268;2024-03-17T03:05:36;2.50;;;1.13;;
80675;SDS011;70041;46.088;18.268;2024-03-17T03:08:03;4.05;;;0.95;;
80675;SDS011;70041;46.088;18.268;2024-03-17T03:10:29;1.83;;;0.73;;
80675;SDS011;70041;46.088;18.268;2024-03-17T03:12:55;3.57;;;1.00;;
80675;SDS011;70041;46.088;18.268;2024-03-17T03:15:20;2.03;;;0.90;;
80675;SDS011;70041;46.088;18.268;2024-03-17T03:17:46;2.55;;;1.20;;
80675;SDS011;70041;46.088;18.268;2024-03-17T03:20:11;2.07;;;1.10;;
80675;SDS011;70041;46.088;18.268;2024-03-17T03:22:37;2.13;;;0.90;;
80675;SDS011;70041;46.088;18.268;2024-03-17T03:25:02;2.25;;;0.85;;
80675;SDS011;70041;46.088;18.268;2024-03-17T03:27:28;2.93;;;1.10;;
80675;SDS011;70041;46.088;18.268;2024-03-17T03:29:53;2.17;;;1.00;;
80675;SDS011;70041;46.088;18.268;2024-03-17T03:32:21;1.30;;;0.73;;
80675;SDS011;70041;46.088;18.268;2024-03-17T03:34:46;2.63;;;1.13;;
80675;SDS011;70041;46.088;18.268;2024-03-17T03:37:12;2.05;;;0.93;;
80675;SDS011;70041;46.088;18.268;2024-03-17T03:39:38;2.63;;;1.00;;
80675;SDS011;70041;46.088;18.268;2024-03-17T03:42:03;3.77;;;1.03;;
80675;SDS011;70041;46.088;18.268;2024-03-17T03:44:28;1.98;;;0.93;;
80675;SDS011;70041;46.088;18.268;2024-03-17T03:46:54;2.10;;;1.00;;
80675;SDS011;70041;46.088;18.268;2024-03-17T03:49:24;4.47;;;1.00;;
80675;SDS011;70041;46.088;18.268;2024-03-17T03:51:50;1.92;;;1.02;;
80675;SDS011;70041;46.088;18.268;2024-03-17T03:54:15;2.20;;;0.90;;
80675;SDS011;70041;46.088;18.268;2024-03-17T03:56:41;2.00;;;0.85;;
80675;SDS011;70041;46.088;18.268;2024-03-17T03:59:06;2.50;;;1.00;;
80675;SDS011;70041;46.088;18.268;2024-03-17T04:01:32;4.57;;;1.40;;
80675;SDS011;70041;46.088;18.268;2024-03-17T04:03:57;2.83;;;1.10;;
80675;SDS011;70041;46.088;18.268;2024-03-17T04:06:22;2.50;;;1.10;;
80675;SDS011;70041;46.088;18.268;2024-03-17T04:08:48;1.40;;;0.70;;
80675;SDS011;70041;46.088;18.268;2024-03-17T04:11:13;2.90;;;1.00;;
80675;SDS011;70041;46.088;18.268;2024-03-17T04:13:39;2.20;;;0.83;;
80675;SDS011;70041;46.088;18.268;2024-03-17T04:16:05;3.80;;;0.90;;
80675;SDS011;70041;46.088;18.268;2024-03-17T04:18:31;1.33;;;0.80;;
80675;SDS011;70041;46.088;18.268;2024-03-17T04:21:01;2.95;;;1.00;;
80675;SDS011;70041;46.088;18.268;2024-03-17T04:23:28;2.13;;;0.80;;
80675;SDS011;70041;46.088;18.268;2024-03-17T04:25:54;1.07;;;0.53;;
80675;SDS011;70041;46.088;18.268;2024-03-17T04:28:19;6.30;;;1.30;;
80675;SDS011;70041;46.088;18.268;2024-03-17T04:30:45;2.90;;;0.90;;
80675;SDS011;70041;46.088;18.268;2024-03-17T04:33:13;3.55;;;1.02;;
80675;SDS011;70041;46.088;18.268;2024-03-17T04:35:39;1.80;;;1.00;;
80675;SDS011;70041;46.088;18.268;2024-03-17T04:38:05;2.13;;;1.03;;
80675;SDS011;70041;46.088;18.268;2024-03-17T04:40:31;3.35;;;1.13;;
80675;SDS011;70041;46.088;18.268;2024-03-17T04:42:57;2.00;;;0.90;;
80675;SDS011;70041;46.088;18.268;2024-03-17T04:45:23;2.30;;;0.90;;
80675;SDS011;70041;46.088;18.268;2024-03-17T04:47:48;2.37;;;0.70;;
80675;SDS011;70041;46.088;18.268;2024-03-17T04:50:14;2.50;;;0.90;;
80675;SDS011;70041;46.088;18.268;2024-03-17T04:52:39;1.70;;;0.80;;
80675;SDS011;70041;46.088;18.268;2024-03-17T04:55:05;2.10;;;0.77;;
80675;SDS011;70041;46.088;18.268;2024-03-17T04:57:30;2.27;;;1.03;;
80675;SDS011;70041;46.088;18.268;2024-03-17T04:59:55;1.53;;;0.70;;
80675;SDS011;70041;46.088;18.268;2024-03-17T05:02:21;2.72;;;1.40;;
80675;SDS011;70041;46.088;18.268;2024-03-17T05:04:48;3.13;;;1.20;;
80675;SDS011;70041;46.088;18.268;2024-03-17T05:07:14;1.73;;;0.90;;
80675;SDS011;70041;46.088;18.268;2024-03-17T05:09:42;3.20;;;1.20;;
80675;SDS011;70041;46.088;18.268;2024-03-17T05:12:09;2.10;;;1.00;;
80675;SDS011;70041;46.088;18.268;2024-03-17T05:14:34;4.83;;;1.40;;
80675;SDS011;70041;46.088;18.268;2024-03-17T05:17:00;2.67;;;1.30;;
80675;SDS011;70041;46.088;18.268;2024-03-17T05:19:25;1.33;;;0.70;;
80675;SDS011;70041;46.088;18.268;2024-03-17T05:21:51;2.67;;;1.00;;
80675;SDS011;70041;46.088;18.268;2024-03-17T05:24:16;2.77;;;1.03;;
80675;SDS011;70041;46.088;18.268;2024-03-17T05:26:42;2.97;;;1.00;;
80675;SDS011;70041;46.088;18.268;2024-03-17T05:29:08;2.73;;;1.10;;
80675;SDS011;70041;46.088;18.268;2024-03-17T05:31:34;2.55;;;1.13;;
80675;SDS011;70041;46.088;18.268;2024-03-17T05:33:59;2.77;;;0.93;;
80675;SDS011;70041;46.088;18.268;2024-03-17T05:36:25;1.80;;;0.90;;
80675;SDS011;70041;46.088;18.268;2024-03-17T05:38:50;2.38;;;0.82;;
80675;SDS011;70041;46.088;18.268;2024-03-17T05:41:16;2.80;;;1.23;;
80675;SDS011;70041;46.088;18.268;2024-03-17T05:43:41;3.47;;;1.10;;
80675;SDS011;70041;46.088;18.268;2024-03-17T05:46:11;1.52;;;0.77;;
80675;SDS011;70041;46.088;18.268;2024-03-17T05:48:39;2.33;;;1.05;;
80675;SDS011;70041;46.088;18.268;2024-03-17T05:51:08;2.67;;;1.17;;
80675;SDS011;70041;46.088;18.268;2024-03-17T05:53:37;2.63;;;0.95;;
80675;SDS011;70041;46.088;18.268;2024-03-17T05:56:05;1.73;;;0.82;;
80675;SDS011;70041;46.088;18.268;2024-03-17T05:58:32;2.33;;;0.98;;
80675;SDS011;70041;46.088;18.268;2024-03-17T06:01:01;2.60;;;1.23;;
80675;SDS011;70041;46.088;18.268;2024-03-17T06:03:27;1.98;;;0.95;;
80675;SDS011;70041;46.088;18.268;2024-03-17T06:05:52;2.20;;;1.00;;
80675;SDS011;70041;46.088;18.268;2024-03-17T06:08:19;3.67;;;1.20;;
80675;SDS011;70041;46.088;18.268;2024-03-17T06:10:45;2.08;;;1.00;;
80675;SDS011;70041;46.088;18.268;2024-03-17T06:13:12;2.28;;;0.90;;
80675;SDS011;70041;46.088;18.268;2024-03-17T06:15:40;3.78;;;1.58;;
80675;SDS011;70041;46.088;18.268;2024-03-17T06:18:06;1.63;;;0.90;;
80675;SDS011;70041;46.088;18.268;2024-03-17T06:20:39;1.60;;;0.80;;
80675;SDS011;70041;46.088;18.268;2024-03-17T06:23:08;2.00;;;0.90;;
80675;SDS011;70041;46.088;18.268;2024-03-17T06:28:27;2.08;;;0.98;;
80675;SDS011;70041;46.088;18.268;2024-03-17T06:30:59;3.35;;;1.33;;
80675;SDS011;70041;46.088;18.268;2024-03-17T06:33:24;3.95;;;1.30;;
80675;SDS011;70041;46.088;18.268;2024-03-17T06:35:50;3.28;;;1.20;;
80675;SDS011;70041;46.088;18.268;2024-03-17T06:38:16;2.50;;;0.83;;
80675;SDS011;70041;46.088;18.268;2024-03-17T06:40:41;2.25;;;0.90;;
80675;SDS011;70041;46.088;18.268;2024-03-17T06:43:12;2.42;;;1.10;;
80675;SDS011;70041;46.088;18.268;2024-03-17T06:45:37;2.05;;;0.80;;
80675;SDS011;70041;46.088;18.268;2024-03-17T06:48:03;3.10;;;1.10;;
80675;SDS011;70041;46.088;18.268;2024-03-17T06:50:30;1.20;;;0.80;;
80675;SDS011;70041;46.088;18.268;2024-03-17T06:52:55;1.58;;;0.82;;
80675;SDS011;70041;46.088;18.268;2024-03-17T06:55:21;2.30;;;0.98;;
80675;SDS011;70041;46.088;18.268;2024-03-17T06:57:47;3.25;;;1.27;;
80675;SDS011;70041;46.088;18.268;2024-03-17T07:00:13;2.67;;;1.30;;
80675;SDS011;70041;46.088;18.268;2024-03-17T07:02:42;2.55;;;1.10;;
80675;SDS011;70041;46.088;18.268;2024-03-17T07:05:12;2.58;;;1.00;;
80675;SDS011;70041;46.088;18.268;2024-03-17T07:07:41;2.38;;;1.10;;
80675;SDS011;70041;46.088;18.268;2024-03-17T07:10:07;2.00;;;0.83;;
80675;SDS011;70041;46.088;18.268;2024-03-17T07:12:33;3.20;;;1.42;;
80675;SDS011;70041;46.088;18.268;2024-03-17T07:14:59;1.85;;;0.95;;
80675;SDS011;70041;46.088;18.268;2024-03-17T07:17:24;3.37;;;1.50;;
80675;SDS011;70041;46.088;18.268;2024-03-17T07:19:50;4.30;;;1.50;;
80675;SDS011;70041;46.088;18.268;2024-03-17T07:22:16;5.78;;;2.00;;
80675;SDS011;70041;46.088;18.268;2024-03-17T07:24:41;5.13;;;2.10;;
80675;SDS011;70041;46.088;18.268;2024-03-17T07:27:09;6.13;;;2.15;;
80675;SDS011;70041;46.088;18.268;2024-03-17T07:29:38;5.43;;;1.50;;
80675;SDS011;70041;46.088;18.268;2024-03-17T07:32:04;2.55;;;1.00;;
80675;SDS011;70041;46.088;18.268;2024-03-17T07:34:33;3.53;;;1.10;;
80675;SDS011;70041;46.088;18.268;2024-03-17T07:37:00;3.30;;;1.30;;
80675;SDS011;70041;46.088;18.268;2024-03-17T07:39:28;4.13;;;1.50;;
80675;SDS011;70041;46.088;18.268;2024-03-17T07:41:57;2.80;;;1.03;;
80675;SDS011;70041;46.088;18.268;2024-03-17T07:44:23;4.00;;;1.25;;
80675;SDS011;70041;46.088;18.268;2024-03-17T07:46:49;4.97;;;1.40;;
80675;SDS011;70041;46.088;18.268;2024-03-17T07:49:14;3.50;;;1.25;;
80675;SDS011;70041;46.088;18.268;2024-03-17T07:51:41;3.33;;;1.10;;
80675;SDS011;70041;46.088;18.268;2024-03-17T07:54:06;4.03;;;1.30;;
80675;SDS011;70041;46.088;18.268;2024-03-17T07:56:32;2.27;;;0.93;;
80675;SDS011;70041;46.088;18.268;2024-03-17T07:58:57;3.83;;;1.20;;
80675;SDS011;70041;46.088;18.268;2024-03-17T08:01:22;2.43;;;0.90;;
80675;SDS011;70041;46.088;18.268;2024-03-17T08:03:48;2.93;;;1.00;;
80675;SDS011;70041;46.088;18.268;2024-03-17T08:06:18;2.10;;;1.10;;
80675;SDS011;70041;46.088;18.268;2024-03-17T08:08:44;2.85;;;1.25;;
80675;SDS011;70041;46.088;18.268;2024-03-17T08:11:09;4.20;;;1.10;;
80675;SDS011;70041;46.088;18.268;2024-03-17T08:13:35;3.07;;;1.23;;
80675;SDS011;70041;46.088;18.268;2024-03-17T08:16:01;5.53;;;1.03;;
80675;SDS011;70041;46.088;18.268;2024-03-17T08:18:28;3.28;;;1.23;;
80675;SDS011;70041;46.088;18.268;2024-03-17T08:20:54;3.30;;;1.10;;
80675;SDS011;70041;46.088;18.268;2024-03-17T08:23:19;2.30;;;1.10;;
80675;SDS011;70041;46.088;18.268;2024-03-17T08:25:58;4.82;;;1.20;;
80675;SDS011;70041;46.088;18.268;2024-03-17T08:28:27;2.10;;;0.80;;
80675;SDS011;70041;46.088;18.268;2024-03-17T08:30:56;1.42;;;0.80;;
80675;SDS011;70041;46.088;18.268;2024-03-17T08:33:23;3.30;;;1.30;;
80675;SDS011;70041;46.088;18.268;2024-03-17T08:38:22;2.08;;;1.00;;
80675;SDS011;70041;46.088;18.268;2024-03-17T08:40:52;3.78;;;1.40;;
80675;SDS011;70041;46.088;18.268;2024-03-17T08:43:18;3.30;;;1.30;;
80675;SDS011;70041;46.088;18.268;2024-03-17T08:45:45;3.00;;;1.10;;
80675;SDS011;70041;46.088;18.268;2024-03-17T08:48:19;4.88;;;1.38;;
80675;SDS011;70041;46.088;18.268;2024-03-17T08:50:49;3.13;;;1.10;;
80675;SDS011;70041;46.088;18.268;2024-03-17T08:53:16;2.42;;;1.00;;
80675;SDS011;70041;46.088;18.268;2024-03-17T08:55:41;2.50;;;1.13;;
80675;SDS011;70041;46.088;18.268;2024-03-17T08:58:07;2.45;;;1.02;;
80675;SDS011;70041;46.088;18.268;2024-03-17T09:00:32;2.38;;;0.80;;
80675;SDS011;70041;46.088;18.268;2024-03-17T09:02:57;2.00;;;0.90;;
80675;SDS011;70041;46.088;18.268;2024-03-17T09:05:23;1.10;;;0.70;;
80675;SDS011;70041;46.088;18.268;2024-03-17T09:07:48;3.00;;;1.30;;
80675;SDS011;70041;46.088;18.268;2024-03-17T09:10:14;2.20;;;0.90;;
80675;SDS011;70041;46.088;18.268;2024-03-17T09:12:39;2.75;;;0.93;;
80675;SDS011;70041;46.088;18.268;2024-03-17T09:15:05;1.10;;;0.63;;
80675;SDS011;70041;46.088;18.268;2024-03-17T09:17:31;2.17;;;1.02;;
80675;SDS011;70041;46.088;18.268;2024-03-17T09:19:56;2.33;;;0.73;;
80675;SDS011;70041;46.088;18.268;2024-03-17T09:22:22;2.03;;;0.80;;
80675;SDS011;70041;46.088;18.268;2024-03-17T09:24:47;1.75;;;0.80;;
80675;SDS011;70041;46.088;18.268;2024-03-17T09:27:13;1.77;;;0.80;;
80675;SDS011;70041;46.088;18.268;2024-03-17T09:29:45;2.70;;;0.75;;
80675;SDS011;70041;46.088;18.268;2024-03-17T09:32:11;2.10;;;0.73;;
80675;SDS011;70041;46.088;18.268;2024-03-17T09:34:42;2.38;;;0.98;;
80675;SDS011;70041;46.088;18.268;2024-03-17T09:37:13;2.92;;;1.10;;
80675;SDS011;70041;46.088;18.268;2024-03-17T09:39:38;5.00;;;0.87;;
80675;SDS011;70041;46.088;18.268;2024-03-17T09:42:04;3.80;;;0.85;;
80675;SDS011;70041;46.088;18.268;2024-03-17T09:44:32;1.37;;;0.70;;
80675;SDS011;70041;46.088;18.268;2024-03-17T09:46:59;2.75;;;1.13;;
80675;SDS011;70041;46.088;18.268;2024-03-17T09:49:26;1.60;;;0.75;;
80675;SDS011;70041;46.088;18.268;2024-03-17T09:51:52;2.00;;;0.73;;
80675;SDS011;70041;46.088;18.268;2024-03-17T09:54:21;1.67;;;0.80;;
80675;SDS011;70041;46.088;18.268;2024-03-17T09:56:47;2.00;;;0.80;;
80675;SDS011;70041;46.088;18.268;2024-03-17T09:59:15;1.02;;;0.60;;
80675;SDS011;70041;46.088;18.268;2024-03-17T10:01:41;2.10;;;0.90;;
80675;SDS011;70041;46.088;18.268;2024-03-17T10:04:07;4.95;;;0.82;;
80675;SDS011;70041;46.088;18.268;2024-03-17T10:06:35;2.08;;;0.90;;
80675;SDS011;70041;46.088;18.268;2024-03-17T10:09:13;1.83;;;0.75;;
80675;SDS011;70041;46.088;18.268;2024-03-17T10:11:46;1.77;;;0.80;;
80675;SDS011;70041;46.088;18.268;2024-03-17T10:14:13;0.93;;;0.60;;
80675;SDS011;70041;46.088;18.268;2024-03-17T10:16:42;1.20;;;0.70;;
80675;SDS011;70041;46.088;18.268;2024-03-17T10:19:12;0.85;;;0.52;;
80675;SDS011;70041;46.088;18.268;2024-03-17T10:21:46;1.60;;;0.70;;
80675;SDS011;70041;46.088;18.268;2024-03-17T10:24:24;1.77;;;0.85;;
80675;SDS011;70041;46.088;18.268;2024-03-17T10:26:51;0.55;;;0.45;;
80675;SDS011;70041;46.088;18.268;2024-03-17T10:31:58;2.03;;;0.80;;
80675;SDS011;70041;46.088;18.268;2024-03-17T10:34:27;2.13;;;0.80;;
80675;SDS011;70041;46.088;18.268;2024-03-17T10:37:08;1.88;;;0.77;;
80675;SDS011;70041;46.088;18.268;2024-03-17T10:39:44;1.83;;;0.90;;
80675;SDS011;70041;46.088;18.268;2024-03-17T10:42:12;2.72;;;0.80;;
80675;SDS011;70041;46.088;18.268;2024-03-17T10:44:39;1.38;;;0.85;;
80675;SDS011;70041;46.088;18.268;2024-03-17T10:47:09;2.22;;;0.70;;
80675;SDS011;70041;46.088;18.268;2024-03-17T10:49:47;3.42;;;1.85;;
80675;SDS011;70041;46.088;18.268;2024-03-17T10:52:15;1.55;;;0.77;;
80675;SDS011;70041;46.088;18.268;2024-03-17T10:54:46;2.33;;;0.90;;
80675;SDS011;70041;46.088;18.268;2024-03-17T10:57:39;1.50;;;0.80;;
80675;SDS011;70041;46.088;18.268;2024-03-17T11:00:13;1.00;;;0.70;;
80675;SDS011;70041;46.088;18.268;2024-03-17T11:02:43;2.08;;;0.77;;
80675;SDS011;70041;46.088;18.268;2024-03-17T11:05:23;1.15;;;0.60;;
80675;SDS011;70041;46.088;18.268;2024-03-17T11:07:53;2.15;;;0.90;;
80675;SDS011;70041;46.088;18.268;2024-03-17T11:10:27;2.80;;;0.90;;
80675;SDS011;70041;46.088;18.268;2024-03-17T11:12:54;1.25;;;0.70;;
80675;SDS011;70041;46.088;18.268;2024-03-17T11:17:55;2.03;;;0.70;;
80675;SDS011;70041;46.088;18.268;2024-03-17T11:23:54;1.70;;;0.70;;
80675;SDS011;70041;46.088;18.268;2024-03-17T11:26:32;1.88;;;0.80;;
80675;SDS011;70041;46.088;18.268;2024-03-17T11:29:00;1.85;;;0.80;;
80675;SDS011;70041;46.088;18.268;2024-03-17T11:34:05;1.92;;;0.68;;
80675;SDS011;70041;46.088;18.268;2024-03-17T11:39:05;2.15;;;1.10;;
80675;SDS011;70041;46.088;18.268;2024-03-17T11:41:43;1.75;;;0.70;;
80675;SDS011;70041;46.088;18.268;2024-03-17T11:46:44;1.15;;;0.70;;
80675;SDS011;70041;46.088;18.268;2024-03-17T11:49:16;1.63;;;0.65;;
80675;SDS011;70041;46.088;18.268;2024-03-17T11:51:42;1.20;;;0.70;;
80675;SDS011;70041;46.088;18.268;2024-03-17T11:54:08;1.63;;;0.70;;
80675;SDS011;70041;46.088;18.268;2024-03-17T11:56:48;3.83;;;1.10;;
80675;SDS011;70041;46.088;18.268;2024-03-17T11:59:14;3.78;;;1.40;;
80675;SDS011;70041;46.088;18.268;2024-03-17T12:01:42;1.83;;;0.80;;
80675;SDS011;70041;46.088;18.268;2024-03-17T12:04:09;1.23;;;0.70;;
80675;SDS011;70041;46.088;18.268;2024-03-17T12:06:35;1.65;;;0.73;;
80675;SDS011;70041;46.088;18.268;2024-03-17T12:09:08;6.00;;;1.00;;
80675;SDS011;70041;46.088;18.268;2024-03-17T12:14:31;0.88;;;0.60;;
80675;SDS011;70041;46.088;18.268;2024-03-17T12:17:03;1.60;;;0.70;;
80675;SDS011;70041;46.088;18.268;2024-03-17T12:19:30;1.83;;;0.80;;
80675;SDS011;70041;46.088;18.268;2024-03-17T12:21:56;3.70;;;0.97;;
80675;SDS011;70041;46.088;18.268;2024-03-17T12:24:24;1.17;;;0.60;;
80675;SDS011;70041;46.088;18.268;2024-03-17T12:26:51;2.53;;;0.88;;
80675;SDS011;70041;46.088;18.268;2024-03-17T12:34:36;1.80;;;0.80;;
80675;SDS011;70041;46.088;18.268;2024-03-17T12:37:03;1.95;;;0.80;;
80675;SDS011;70041;46.088;18.268;2024-03-17T12:42:36;1.35;;;0.70;;
80675;SDS011;70041;46.088;18.268;2024-03-17T12:45:03;1.70;;;0.80;;
80675;SDS011;70041;46.088;18.268;2024-03-17T12:47:34;2.33;;;0.83;;
80675;SDS011;70041;46.088;18.268;2024-03-17T12:50:00;1.10;;;0.60;;
80675;SDS011;70041;46.088;18.268;2024-03-17T12:52:30;1.90;;;0.82;;
80675;SDS011;70041;46.088;18.268;2024-03-17T12:55:01;1.98;;;0.82;;
80675;SDS011;70041;46.088;18.268;2024-03-17T13:00:45;0.73;;;0.50;;
80675;SDS011;70041;46.088;18.268;2024-03-17T13:03:21;1.05;;;0.60;;
80675;SDS011;70041;46.088;18.268;2024-03-17T13:05:49;1.27;;;0.60;;
80675;SDS011;70041;46.088;18.268;2024-03-17T13:08:14;1.60;;;0.73;;
80675;SDS011;70041;46.088;18.268;2024-03-17T13:10:40;1.40;;;0.70;;
80675;SDS011;70041;46.088;18.268;2024-03-17T13:13:07;1.52;;;0.70;;
80675;SDS011;70041;46.088;18.268;2024-03-17T13:15:34;2.57;;;0.70;;
80675;SDS011;70041;46.088;18.268;2024-03-17T13:18:03;1.90;;;0.88;;
80675;SDS011;70041;46.088;18.268;2024-03-17T13:20:30;0.90;;;0.60;;
80675;SDS011;70041;46.088;18.268;2024-03-17T13:22:59;0.80;;;0.60;;
80675;SDS011;70041;46.088;18.268;2024-03-17T13:25:25;2.40;;;0.80;;
80675;SDS011;70041;46.088;18.268;2024-03-17T13:27:54;2.03;;;0.82;;
80675;SDS011;70041;46.088;18.268;2024-03-17T13:30:21;1.42;;;0.60;;
80675;SDS011;70041;46.088;18.268;2024-03-17T13:32:48;1.88;;;0.90;;
80675;SDS011;70041;46.088;18.268;2024-03-17T13:35:17;1.92;;;0.80;;
80675;SDS011;70041;46.088;18.268;2024-03-17T13:37:44;1.80;;;0.70;;
80675;SDS011;70041;46.088;18.268;2024-03-17T13:40:11;1.75;;;0.70;;
80675;SDS011;70041;46.088;18.268;2024-03-17T13:42:38;1.00;;;0.63;;
80675;SDS011;70041;46.088;18.268;2024-03-17T13:45:04;2.97;;;0.95;;
80675;SDS011;70041;46.088;18.268;2024-03-17T13:47:31;2.83;;;0.90;;
80675;SDS011;70041;46.088;18.268;2024-03-17T13:49:58;1.30;;;0.80;;
80675;SDS011;70041;46.088;18.268;2024-03-17T13:52:23;1.45;;;0.60;;
80675;SDS011;70041;46.088;18.268;2024-03-17T13:54:49;1.37;;;0.70;;
80675;SDS011;70041;46.088;18.268;2024-03-17T13:57:14;1.30;;;0.70;;
80675;SDS011;70041;46.088;18.268;2024-03-17T13:59:41;1.33;;;0.70;;
80675;SDS011;70041;46.088;18.268;2024-03-17T14:02:07;1.83;;;0.80;;
80675;SDS011;70041;46.088;18.268;2024-03-17T14:04:37;1.33;;;0.80;;
80675;SDS011;70041;46.088;18.268;2024-03-17T14:07:03;1.67;;;0.70;;
80675;SDS011;70041;46.088;18.268;2024-03-17T14:09:29;4.45;;;1.02;;
80675;SDS011;70041;46.088;18.268;2024-03-17T14:11:55;1.03;;;0.53;;
80675;SDS011;70041;46.088;18.268;2024-03-17T14:14:22;2.58;;;0.90;;
80675;SDS011;70041;46.088;18.268;2024-03-17T14:16:48;1.42;;;0.70;;
80675;SDS011;70041;46.088;18.268;2024-03-17T14:19:13;2.10;;;0.70;;
80675;SDS011;70041;46.088;18.268;2024-03-17T14:21:38;1.10;;;0.60;;
80675;SDS011;70041;46.088;18.268;2024-03-17T14:24:04;1.58;;;0.75;;
80675;SDS011;70041;46.088;18.268;2024-03-17T14:26:32;1.93;;;0.90;;
80675;SDS011;70041;46.088;18.268;2024-03-17T14:28:58;1.40;;;0.70;;
80675;SDS011;70041;46.088;18.268;2024-03-17T14:31:25;1.60;;;0.85;;
80675;SDS011;70041;46.088;18.268;2024-03-17T14:33:51;1.35;;;0.77;;
80675;SDS011;70041;46.088;18.268;2024-03-17T14:36:16;2.83;;;0.90;;
80675;SDS011;70041;46.088;18.268;2024-03-17T14:38:43;1.08;;;0.60;;
80675;SDS011;70041;46.088;18.268;2024-03-17T14:41:08;3.03;;;0.97;;
80675;SDS011;70041;46.088;18.268;2024-03-17T14:43:34;2.90;;;0.90;;
80675;SDS011;70041;46.088;18.268;2024-03-17T14:46:03;1.75;;;0.80;;
80675;SDS011;70041;46.088;18.268;2024-03-17T14:48:29;1.75;;;0.75;;
80675;SDS011;70041;46.088;18.268;2024-03-17T14:50:54;1.00;;;0.60;;
80675;SDS011;70041;46.088;18.268;2024-03-17T14:53:20;2.13;;;0.80;;
80675;SDS011;70041;46.088;18.268;2024-03-17T14:55:45;2.87;;;0.77;;
80675;SDS011;70041;46.088;18.268;2024-03-17T14:58:11;7.67;;;1.33;;
80675;SDS011;70041;46.088;18.268;2024-03-17T15:00:37;1.37;;;0.80;;
80675;SDS011;70041;46.088;18.268;2024-03-17T15:03:03;1.50;;;0.70;;
80675;SDS011;70041;46.088;18.268;2024-03-17T15:05:30;2.60;;;1.05;;
80675;SDS011;70041;46.088;18.268;2024-03-17T15:07:56;4.13;;;1.30;;